JFK weather

John F Kennedy International Airport
New York, New York, United States

Public forecast

Using degrees Fahrenheit for public forecast. Weather courtesy of forecast.io.

METAR (pilot weather report)

Retrieved 2018/12/13 16:51 UTC (47 minutes ago):

KJFK 131651Z 07008KT 10SM -RA BKN027 OVC040 02/00 A3041 RMK AO2 SNE13 SLP298 P0000 T00220000

TAF (pilot weather forecast)

Retrieved 2018/12/13 12:35 UTC (5 hours ago):

TAF KJFK 131130Z 1312/1418 08010KT P6SM SCT035 BKN120 FM131300 09010KT 5SM -SN BR BKN030 OVC040 TEMPO 1313/1315 2SM -SN BR FM131500 11010KT 6SM -RASN OVC025 FM131600 11010KT 6SM -RA OVC020 FM131800 12010KT 6SM -RADZ OVC015 FM140000 09009KT P6SM OVC015 FM140500 08006KT P6SM OVC010 FM141300 11008KT P6SM SCT010 BKN020